Portada
METAR-TAF:

METAR-TAF

Aeroports :

Williamsburg-Jamestown Airport

Williamsburg, Virgínia, Estats Units d'Amèrica

latitud: 37-14-21N, longitud: 076-42-57W, altitud: 15 m

Observació

L'informe es va fer fa 26 minuts, a les 12:15 UTC
Vent calma
Temperatura 24°C
Humitat 83%
Pressió 1018 hPa
Visibilitat: 16.1 km
Cel clar

METAR: KJGG 191215Z AUTO 00000KT 10SM CLR 24/21 A3007 RMK AO1

Hora: 08:41 (12:41 UTC)


TAF: manca

Observacions i pronòstics meteorològics de més de 4000 aeroports (METAR i TAF).

Les estacions disponibles són els punts grocs i vermells al mapa.

Posi el ratolí al punt desitjat per veure el nom de l'estació.

Feu clic per veure les observacions i els pronòstics meteorològics.

Per canviar el mapa: feu clic els botons verds amb una creu de color negre per apropar; al botó verd amb un guió per allunyar la imatge; o en les fletxes verdes per a mapes adjacents.


METAR-TAF: